createdAt,value
2019-03-03T00:00:31.784Z,9.17
2019-03-03T00:01:30.064Z,9.15
2019-03-03T00:02:30.070Z,9.26
2019-03-03T00:03:30.039Z,9.23
2019-03-03T00:04:30.031Z,9.13
2019-03-03T00:05:30.059Z,9.28
2019-03-03T00:06:30.790Z,9.21
2019-03-03T00:07:29.997Z,9.17
2019-03-03T00:08:29.991Z,9.23
2019-03-03T00:09:29.971Z,9.23
2019-03-03T00:10:29.992Z,9.18
2019-03-03T00:11:29.978Z,9.17
2019-03-03T00:12:29.946Z,9.18
2019-03-03T00:13:29.930Z,9.18
2019-03-03T00:14:29.944Z,9.15
2019-03-03T00:15:29.942Z,9.18
2019-03-03T00:16:29.956Z,9.20
2019-03-03T00:17:29.889Z,9.20
2019-03-03T00:18:29.881Z,9.15
2019-03-03T00:19:29.928Z,9.23
2019-03-03T00:20:29.863Z,9.17
2019-03-03T00:21:29.840Z,9.26
2019-03-03T00:22:29.899Z,9.21
2019-03-03T00:23:29.820Z,9.23
2019-03-03T00:24:29.809Z,9.17
2019-03-03T00:25:29.797Z,9.28
2019-03-03T00:26:29.783Z,9.24
2019-03-03T00:27:29.878Z,9.31
2019-03-03T00:28:29.797Z,9.35
2019-03-03T00:29:29.751Z,9.31
2019-03-03T00:30:29.740Z,9.33
2019-03-03T00:31:29.729Z,9.33
2019-03-03T00:32:29.716Z,9.29
2019-03-03T00:33:31.294Z,9.31
2019-03-03T00:34:29.735Z,9.33
2019-03-03T00:35:31.592Z,9.32
2019-03-03T00:36:29.671Z,9.35
2019-03-03T00:37:29.674Z,9.36
2019-03-03T00:38:29.689Z,9.31
2019-03-03T00:39:29.647Z,9.31
2019-03-03T00:40:29.655Z,9.33
2019-03-03T00:41:29.615Z,9.32
2019-03-03T00:42:29.607Z,9.32
2019-03-03T00:43:29.633Z,9.26
2019-03-03T00:44:29.592Z,9.35
2019-03-03T00:45:29.581Z,9.26
2019-03-03T00:46:29.563Z,9.31
2019-03-03T00:47:29.563Z,9.32
2019-03-03T00:48:29.562Z,9.29
2019-03-03T00:49:29.632Z,9.29
2019-03-03T00:50:29.521Z,9.31
2019-03-03T00:51:29.575Z,9.28
2019-03-03T00:52:29.507Z,9.46
2019-03-03T00:53:29.488Z,9.53
2019-03-03T00:54:29.510Z,9.53
2019-03-03T00:55:29.515Z,9.46
2019-03-03T00:56:29.461Z,9.40
2019-03-03T00:57:29.440Z,9.40
2019-03-03T00:58:29.438Z,9.46
2019-03-03T00:59:29.418Z,9.43
2019-03-03T01:00:29.470Z,9.56
2019-03-03T01:01:29.401Z,9.53
2019-03-03T01:02:29.399Z,9.48
2019-03-03T01:03:29.384Z,9.48
2019-03-03T01:04:29.368Z,9.51
2019-03-03T01:05:30.307Z,9.51
2019-03-03T01:06:29.384Z,9.61
2019-03-03T01:07:29.332Z,9.50
2019-03-03T01:08:29.320Z,9.57
2019-03-03T01:09:29.307Z,9.60
2019-03-03T01:10:29.298Z,9.61
2019-03-03T01:11:29.317Z,9.54
2019-03-03T01:12:29.407Z,9.57
2019-03-03T01:13:29.259Z,9.57
2019-03-03T01:14:29.247Z,9.56
2019-03-03T01:15:29.249Z,9.64
2019-03-03T01:16:29.244Z,9.65
2019-03-03T01:17:29.244Z,9.50
2019-03-03T01:18:29.211Z,9.54
2019-03-03T01:19:29.210Z,9.64
2019-03-03T01:20:29.183Z,9.66
2019-03-03T01:21:29.171Z,9.65
2019-03-03T01:22:29.191Z,9.65
2019-03-03T01:23:29.151Z,9.66
2019-03-03T01:24:29.138Z,9.71
2019-03-03T01:25:29.161Z,9.75
2019-03-03T01:26:29.118Z,9.79
2019-03-03T01:27:29.143Z,9.84
2019-03-03T01:28:29.116Z,9.86
2019-03-03T01:29:29.085Z,9.86
2019-03-03T01:30:29.073Z,9.74
2019-03-03T01:31:29.063Z,9.89
2019-03-03T01:32:29.162Z,9.89
2019-03-03T01:33:29.044Z,9.87
2019-03-03T01:34:29.037Z,9.83
2019-03-03T01:35:29.016Z,9.86
2019-03-03T01:36:29.010Z,9.84
2019-03-03T01:37:28.995Z,9.90
2019-03-03T01:38:29.081Z,9.86
2019-03-03T01:39:28.975Z,9.84
2019-03-03T01:40:28.966Z,9.91
2019-03-03T01:41:28.950Z,9.91
2019-03-03T01:42:28.954Z,9.97
2019-03-03T01:43:28.964Z,9.96
2019-03-03T01:44:28.923Z,9.97
2019-03-03T01:45:28.915Z,9.89
2019-03-03T01:46:28.934Z,9.83
2019-03-03T01:47:28.889Z,9.78
2019-03-03T01:48:28.909Z,9.83
2019-03-03T01:49:28.864Z,9.78
2019-03-03T01:50:28.862Z,9.94
2019-03-03T01:51:28.843Z,9.79
2019-03-03T01:52:28.897Z,9.86
2019-03-03T01:53:28.862Z,9.86
2019-03-03T01:54:28.814Z,9.79
2019-03-03T01:55:28.801Z,9.90
2019-03-03T01:56:28.795Z,9.83
2019-03-03T01:57:28.776Z,9.81
2019-03-03T01:58:28.810Z,9.83
2019-03-03T01:59:28.850Z,9.84
2019-03-03T02:00:28.747Z,9.96
2019-03-03T02:01:28.738Z,9.86
2019-03-03T02:02:28.756Z,9.89
2019-03-03T02:03:28.713Z,9.83
2019-03-03T02:04:28.730Z,9.78
2019-03-03T02:05:28.718Z,9.86
2019-03-03T02:06:28.676Z,9.84
2019-03-03T02:07:28.671Z,9.72
2019-03-03T02:08:28.658Z,9.78
2019-03-03T02:09:29.310Z,9.79
2019-03-03T02:10:28.699Z,9.76
2019-03-03T02:11:28.626Z,9.84
2019-03-03T02:12:28.613Z,9.86
2019-03-03T02:13:28.600Z,9.87
2019-03-03T02:14:28.609Z,9.75
2019-03-03T02:15:28.577Z,9.83
2019-03-03T02:16:28.603Z,9.83
2019-03-03T02:17:28.553Z,9.69
2019-03-03T02:18:28.557Z,9.74
2019-03-03T02:19:28.598Z,9.74
2019-03-03T02:20:28.533Z,9.74
2019-03-03T02:21:28.519Z,9.75
2019-03-03T02:22:28.555Z,9.87
2019-03-03T02:23:28.493Z,9.86
2019-03-03T02:24:28.478Z,9.84
2019-03-03T02:25:28.495Z,9.74
2019-03-03T02:26:28.457Z,9.75
2019-03-03T02:27:28.459Z,9.72
2019-03-03T02:28:28.494Z,9.81
2019-03-03T02:29:28.426Z,9.81
2019-03-03T02:30:29.314Z,9.83
2019-03-03T02:31:28.418Z,9.87
2019-03-03T02:32:28.390Z,9.79
2019-03-03T02:33:28.409Z,9.75
2019-03-03T02:34:28.371Z,9.83
2019-03-03T02:35:28.479Z,9.71
2019-03-03T02:36:28.363Z,9.72
2019-03-03T02:37:28.366Z,9.72
2019-03-03T02:38:28.325Z,9.66
2019-03-03T02:39:28.322Z,9.64
2019-03-03T02:40:28.313Z,9.68
2019-03-03T02:41:28.321Z,9.65
2019-03-03T02:42:28.296Z,9.72
2019-03-03T02:43:28.274Z,9.61
2019-03-03T02:44:28.263Z,9.64
2019-03-03T02:45:28.253Z,9.64
2019-03-03T02:46:28.270Z,9.68
2019-03-03T02:47:28.230Z,9.68
2019-03-03T02:48:28.246Z,9.60
2019-03-03T02:49:28.224Z,9.60
2019-03-03T02:50:28.226Z,9.64
2019-03-03T02:51:28.206Z,9.58
2019-03-03T02:52:28.301Z,9.64
2019-03-03T02:53:28.158Z,9.64
2019-03-03T02:54:28.155Z,9.57
2019-03-03T02:55:28.195Z,9.61
2019-03-03T02:56:28.151Z,9.61
2019-03-03T02:57:28.115Z,9.61
2019-03-03T02:58:28.112Z,9.58
2019-03-03T02:59:28.092Z,9.60
2019-03-03T03:00:28.098Z,9.61
2019-03-03T03:01:28.098Z,9.65
2019-03-03T03:02:28.062Z,9.66
2019-03-03T03:03:28.076Z,9.66
2019-03-03T03:04:28.039Z,9.65
2019-03-03T03:05:28.043Z,9.64
2019-03-03T03:06:28.052Z,9.58
2019-03-03T03:07:28.008Z,9.65
2019-03-03T03:08:28.077Z,9.71
2019-03-03T03:09:27.992Z,9.74
2019-03-03T03:10:27.974Z,9.65
2019-03-03T03:11:27.975Z,9.69
2019-03-03T03:12:27.994Z,9.74
2019-03-03T03:13:27.947Z,9.74
2019-03-03T03:14:31.372Z,9.69
2019-03-03T03:15:27.925Z,9.61
2019-03-03T03:16:27.917Z,9.72
2019-03-03T03:17:27.902Z,9.66
2019-03-03T03:18:28.032Z,9.58
2019-03-03T03:19:29.849Z,9.66
2019-03-03T03:20:27.866Z,9.65
2019-03-03T03:21:27.852Z,9.72
2019-03-03T03:22:27.866Z,9.69
2019-03-03T03:23:27.827Z,9.71
2019-03-03T03:24:27.874Z,9.78
2019-03-03T03:25:28.826Z,9.69
2019-03-03T03:26:27.794Z,9.75
2019-03-03T03:27:27.905Z,9.76
2019-03-03T03:28:27.773Z,9.74
2019-03-03T03:29:27.766Z,9.72
2019-03-03T03:30:27.807Z,9.74
2019-03-03T03:31:27.755Z,9.78
2019-03-03T03:32:27.735Z,9.71
2019-03-03T03:33:27.732Z,9.76
2019-03-03T03:34:27.719Z,9.79
2019-03-03T03:35:27.816Z,9.78
2019-03-03T03:36:27.691Z,9.72
2019-03-03T03:37:27.679Z,9.74
2019-03-03T03:38:27.677Z,9.79
2019-03-03T03:39:27.654Z,9.76
2019-03-03T03:40:27.650Z,9.76
2019-03-03T03:41:27.696Z,9.76
2019-03-03T03:42:27.670Z,9.75
2019-03-03T03:43:27.616Z,9.78
2019-03-03T03:44:27.605Z,9.72
2019-03-03T03:45:27.589Z,9.71
2019-03-03T03:46:28.388Z,9.60
2019-03-03T03:47:27.656Z,9.65
2019-03-03T03:48:27.558Z,9.66
2019-03-03T03:49:27.548Z,9.69
2019-03-03T03:50:27.594Z,9.69
2019-03-03T03:51:27.534Z,9.66
2019-03-03T03:52:29.341Z,9.65
2019-03-03T03:53:27.530Z,9.65
2019-03-03T03:54:27.495Z,9.61
2019-03-03T03:55:27.489Z,9.69
2019-03-03T03:56:27.475Z,9.72
2019-03-03T03:57:28.341Z,9.64
2019-03-03T03:58:27.462Z,9.66
2019-03-03T03:59:27.432Z,9.58
2019-03-03T04:00:27.462Z,9.78
2019-03-03T04:01:27.421Z,9.69
2019-03-03T04:02:27.499Z,9.76
2019-03-03T04:03:27.395Z,9.69
2019-03-03T04:04:27.388Z,9.64
2019-03-03T04:05:27.373Z,9.61
2019-03-03T04:06:27.359Z,9.54
2019-03-03T04:07:27.409Z,9.64
2019-03-03T04:08:27.363Z,9.58
2019-03-03T04:09:27.329Z,9.61
2019-03-03T04:10:27.317Z,9.53
2019-03-03T04:11:27.316Z,9.46
2019-03-03T04:12:27.304Z,9.42
2019-03-03T04:13:27.862Z,9.39
2019-03-03T04:14:27.329Z,9.42
2019-03-03T04:15:27.278Z,9.40
2019-03-03T04:16:27.250Z,9.32
2019-03-03T04:17:27.237Z,9.33
2019-03-03T04:18:27.253Z,9.28
2019-03-03T04:19:27.253Z,9.20
2019-03-03T04:20:27.215Z,9.14
2019-03-03T04:21:27.241Z,9.24
2019-03-03T04:22:27.185Z,9.14
2019-03-03T04:23:28.848Z,9.10
2019-03-03T04:24:27.159Z,9.08
2019-03-03T04:25:27.163Z,9.05
2019-03-03T04:26:27.139Z,8.94
2019-03-03T04:27:27.129Z,8.96
2019-03-03T04:28:27.153Z,8.83
2019-03-03T04:29:27.124Z,8.81
2019-03-03T04:30:27.095Z,8.76
2019-03-03T04:31:27.126Z,8.79
2019-03-03T04:32:27.063Z,8.76
2019-03-03T04:33:27.055Z,8.68
2019-03-03T04:34:27.112Z,8.71
2019-03-03T04:35:27.101Z,8.74
2019-03-03T04:36:27.115Z,8.71
2019-03-03T04:37:27.042Z,8.63
2019-03-03T04:38:27.006Z,8.65
2019-03-03T04:39:27.107Z,8.63
2019-03-03T04:40:27.025Z,8.55
2019-03-03T04:41:26.969Z,8.55
2019-03-03T04:42:26.957Z,8.43
2019-03-03T04:43:27.014Z,8.48
2019-03-03T04:44:27.035Z,8.52
2019-03-03T04:45:27.932Z,8.48
2019-03-03T04:46:27.065Z,8.41
2019-03-03T04:47:26.921Z,8.40
2019-03-03T04:48:26.932Z,8.44
2019-03-03T04:49:26.894Z,8.53
2019-03-03T04:50:26.895Z,8.41
2019-03-03T04:51:26.860Z,8.50
2019-03-03T04:52:26.887Z,8.45
2019-03-03T04:53:26.853Z,8.44
2019-03-03T04:54:26.838Z,8.47
2019-03-03T04:55:26.883Z,8.40
2019-03-03T04:56:26.807Z,8.45
2019-03-03T04:57:26.837Z,8.43
2019-03-03T04:58:26.782Z,8.50
2019-03-03T04:59:26.771Z,8.48
2019-03-03T05:00:26.865Z,8.45
2019-03-03T05:01:26.814Z,8.50
2019-03-03T05:02:26.739Z,8.45
2019-03-03T05:03:26.798Z,8.45
2019-03-03T05:04:26.733Z,8.44
2019-03-03T05:05:26.697Z,8.50
2019-03-03T05:06:26.729Z,8.47
2019-03-03T05:07:26.679Z,8.47
2019-03-03T05:08:26.719Z,8.41
2019-03-03T05:09:26.666Z,8.40
2019-03-03T05:10:26.645Z,8.47
2019-03-03T05:11:28.214Z,8.40
2019-03-03T05:12:26.623Z,8.43
2019-03-03T05:13:26.628Z,8.43
2019-03-03T05:14:26.616Z,8.47
2019-03-03T05:15:26.586Z,8.50
2019-03-03T05:16:26.604Z,8.44
2019-03-03T05:17:31.420Z,8.55
2019-03-03T05:18:26.550Z,8.48
2019-03-03T05:19:26.555Z,8.43
2019-03-03T05:20:26.568Z,8.44
2019-03-03T05:21:26.517Z,8.43
2019-03-03T05:22:26.570Z,8.44
2019-03-03T05:23:26.506Z,8.47
2019-03-03T05:24:33.953Z,8.44
2019-03-03T05:25:27.479Z,8.44
2019-03-03T05:26:26.502Z,8.45
2019-03-03T05:27:26.453Z,8.44
2019-03-03T05:28:27.392Z,8.44
2019-03-03T05:29:26.430Z,8.43
2019-03-03T05:30:26.425Z,8.47
2019-03-03T05:31:26.417Z,8.43
2019-03-03T05:32:26.434Z,8.43
2019-03-03T05:33:27.370Z,8.44
2019-03-03T05:34:26.377Z,8.44
2019-03-03T05:35:26.387Z,8.43
2019-03-03T05:36:26.381Z,8.47
2019-03-03T05:37:26.341Z,8.47
2019-03-03T05:38:26.427Z,8.44
2019-03-03T05:39:26.318Z,8.44
2019-03-03T05:40:26.365Z,8.43
2019-03-03T05:41:26.302Z,8.44
2019-03-03T05:42:26.289Z,8.48
2019-03-03T05:43:26.333Z,8.44
2019-03-03T05:44:27.896Z,8.44
2019-03-03T05:45:26.300Z,8.44
2019-03-03T05:46:26.267Z,8.40
2019-03-03T05:47:26.236Z,8.45
2019-03-03T05:48:26.224Z,8.41
2019-03-03T05:49:26.318Z,8.41
2019-03-03T05:50:26.201Z,8.38
2019-03-03T05:51:26.198Z,8.47
2019-03-03T05:52:26.194Z,8.44
2019-03-03T05:53:26.167Z,8.48
2019-03-03T05:54:27.913Z,8.44
2019-03-03T05:55:26.168Z,8.44
2019-03-03T05:56:26.138Z,8.38
2019-03-03T05:57:26.161Z,8.45
2019-03-03T05:58:26.132Z,8.47
2019-03-03T05:59:26.154Z,8.47
2019-03-03T06:00:26.103Z,8.43
2019-03-03T06:01:26.124Z,8.40
2019-03-03T06:02:26.063Z,8.45
2019-03-03T06:03:26.091Z,8.34
2019-03-03T06:04:26.055Z,8.44
2019-03-03T06:05:30.877Z,8.43
2019-03-03T06:06:26.045Z,8.43
2019-03-03T06:07:26.025Z,8.44
2019-03-03T06:08:26.002Z,8.45
2019-03-03T06:09:26.007Z,8.48
2019-03-03T06:10:26.938Z,8.41
2019-03-03T06:11:25.960Z,8.44
2019-03-03T06:12:25.957Z,8.40
2019-03-03T06:13:25.964Z,8.43
2019-03-03T06:14:25.929Z,8.47
2019-03-03T06:15:26.873Z,8.44
2019-03-03T06:16:25.916Z,8.43
2019-03-03T06:17:26.094Z,8.48
2019-03-03T06:18:25.962Z,8.43
2019-03-03T06:19:25.875Z,8.41
2019-03-03T06:20:27.825Z,8.37
2019-03-03T06:21:25.875Z,8.37
2019-03-03T06:22:25.864Z,8.36
2019-03-03T06:23:25.890Z,8.47
2019-03-03T06:24:25.817Z,8.48
2019-03-03T06:25:25.907Z,8.41
2019-03-03T06:26:25.853Z,8.43
2019-03-03T06:27:26.049Z,8.38
2019-03-03T06:28:25.790Z,8.41
2019-03-03T06:29:26.072Z,8.40
2019-03-03T06:30:25.819Z,8.34
2019-03-03T06:31:29.402Z,8.45
2019-03-03T06:32:25.805Z,8.44
2019-03-03T06:33:25.878Z,8.41
2019-03-03T06:34:25.933Z,8.43
2019-03-03T06:35:25.746Z,8.38
2019-03-03T06:36:26.445Z,8.43
2019-03-03T06:37:25.759Z,8.43
2019-03-03T06:38:25.765Z,8.37
2019-03-03T06:39:25.661Z,8.41
2019-03-03T06:40:25.661Z,8.50
2019-03-03T06:42:04.864Z,8.41
2019-03-03T06:42:25.621Z,8.47
2019-03-03T06:43:25.609Z,8.38
2019-03-03T06:44:25.695Z,8.41
2019-03-03T06:45:25.653Z,8.45
2019-03-03T06:46:25.599Z,8.47
2019-03-03T06:47:33.913Z,8.44
2019-03-03T06:48:25.557Z,8.48
2019-03-03T06:49:25.534Z,8.48
2019-03-03T06:50:25.602Z,8.43
2019-03-03T06:51:25.516Z,8.29
2019-03-03T06:52:34.893Z,8.30
2019-03-03T06:53:25.492Z,8.33
2019-03-03T06:54:25.481Z,8.40
2019-03-03T06:55:25.480Z,8.30
2019-03-03T06:56:25.477Z,8.30
2019-03-03T06:57:43.864Z,8.41
2019-03-03T06:58:25.449Z,8.40
2019-03-03T06:59:25.484Z,8.38
2019-03-03T07:00:25.422Z,8.38
2019-03-03T07:01:25.405Z,8.40
2019-03-03T07:02:40.446Z,8.45
2019-03-03T07:03:25.435Z,8.29
2019-03-03T07:04:25.397Z,8.33
2019-03-03T07:05:26.106Z,8.38
2019-03-03T07:06:25.345Z,8.41
2019-03-03T07:07:25.341Z,8.34
2019-03-03T07:09:35.173Z,8.45
2019-03-03T07:10:35.200Z,8.43
2019-03-03T07:11:35.148Z,8.34
2019-03-03T07:12:35.171Z,8.43
2019-03-03T07:13:35.206Z,8.30
2019-03-03T07:14:35.108Z,8.43
2019-03-03T07:15:35.102Z,8.43
2019-03-03T07:16:35.148Z,8.37
2019-03-03T07:17:35.160Z,8.48
2019-03-03T07:18:35.127Z,8.38
2019-03-03T07:19:35.083Z,8.45
2019-03-03T07:20:35.050Z,8.41
2019-03-03T07:21:35.783Z,8.43
2019-03-03T07:22:35.022Z,8.45
2019-03-03T07:23:35.074Z,8.40
2019-03-03T07:24:35.002Z,8.44
2019-03-03T07:25:35.008Z,8.43
2019-03-03T07:26:34.980Z,8.43
2019-03-03T07:27:34.966Z,8.50
2019-03-03T07:28:34.977Z,8.48
2019-03-03T07:29:34.948Z,8.56
2019-03-03T07:30:34.950Z,8.50
2019-03-03T07:31:34.935Z,8.53
2019-03-03T07:32:34.938Z,8.52
2019-03-03T07:33:34.933Z,8.52
2019-03-03T07:34:34.914Z,8.52
2019-03-03T07:35:34.924Z,8.52
2019-03-03T07:36:34.875Z,8.58
2019-03-03T07:37:34.884Z,8.50
2019-03-03T07:38:34.885Z,8.58
2019-03-03T07:39:34.863Z,8.56
2019-03-03T07:40:35.775Z,8.47
2019-03-03T07:41:34.840Z,8.59
2019-03-03T07:42:34.845Z,8.59
2019-03-03T07:43:34.843Z,8.59
2019-03-03T07:44:34.814Z,8.58
2019-03-03T07:45:34.852Z,8.47
2019-03-03T07:46:34.761Z,8.63
2019-03-03T07:47:34.748Z,8.58
2019-03-03T07:48:34.831Z,8.55
2019-03-03T07:49:34.764Z,8.59
2019-03-03T07:50:34.715Z,8.52
2019-03-03T07:51:34.719Z,8.58
2019-03-03T07:52:35.715Z,8.63
2019-03-03T07:53:34.689Z,8.61
2019-03-03T07:54:34.696Z,8.70
2019-03-03T07:55:34.669Z,8.74
2019-03-03T07:56:34.658Z,8.65
2019-03-03T07:57:34.648Z,8.63
2019-03-03T07:58:35.643Z,8.63
2019-03-03T07:59:35.762Z,8.71
2019-03-03T08:00:34.613Z,8.73
2019-03-03T08:01:35.645Z,8.76
2019-03-03T08:02:34.590Z,8.71
2019-03-03T08:03:34.613Z,8.80
2019-03-03T08:04:34.628Z,8.66
2019-03-03T08:05:34.556Z,8.74
2019-03-03T08:06:35.567Z,8.74
2019-03-03T08:07:34.533Z,8.66
2019-03-03T08:08:34.517Z,8.77
2019-03-03T08:09:34.528Z,8.76
2019-03-03T08:10:34.531Z,8.77
2019-03-03T08:11:34.563Z,8.71
2019-03-03T08:12:34.465Z,8.81
2019-03-03T08:13:35.483Z,8.76
2019-03-03T08:14:34.471Z,8.74
2019-03-03T08:15:34.437Z,8.79
2019-03-03T08:16:34.424Z,8.86
2019-03-03T08:17:35.324Z,8.77
2019-03-03T08:18:34.441Z,8.86
2019-03-03T08:19:34.434Z,8.77
2019-03-03T08:20:34.387Z,8.76
2019-03-03T08:21:34.377Z,8.87
2019-03-03T08:22:34.367Z,8.89
2019-03-03T08:23:35.259Z,8.80
2019-03-03T08:24:34.429Z,8.91
2019-03-03T08:25:34.351Z,8.86
2019-03-03T08:26:34.318Z,8.87
2019-03-03T08:27:34.405Z,8.89
2019-03-03T08:28:34.295Z,8.86
2019-03-03T08:29:34.304Z,8.87
2019-03-03T08:30:34.298Z,8.86
2019-03-03T08:31:34.286Z,8.96
2019-03-03T08:32:34.260Z,8.94
2019-03-03T08:33:34.330Z,8.98
2019-03-03T08:34:34.265Z,8.95
2019-03-03T08:35:34.224Z,8.98
2019-03-03T08:36:34.254Z,9.01
2019-03-03T08:37:34.248Z,8.99
2019-03-03T08:38:34.235Z,8.94
2019-03-03T08:39:34.196Z,9.08
2019-03-03T08:40:34.169Z,8.98
2019-03-03T08:41:35.163Z,8.96
2019-03-03T08:42:36.922Z,8.99
2019-03-03T08:43:34.127Z,8.98
2019-03-03T08:44:34.156Z,9.05
2019-03-03T08:45:34.151Z,9.10
2019-03-03T08:46:34.102Z,9.02
2019-03-03T08:47:34.126Z,9.08
2019-03-03T08:48:34.080Z,9.08
2019-03-03T08:49:34.108Z,9.10
2019-03-03T08:50:34.764Z,9.08
2019-03-03T08:51:35.067Z,9.15
2019-03-03T08:52:34.035Z,9.15
2019-03-03T08:53:34.076Z,9.05
2019-03-03T08:54:34.031Z,9.14
2019-03-03T08:55:37.759Z,9.15
2019-03-03T08:56:34.017Z,9.13
2019-03-03T08:57:34.986Z,9.13
2019-03-03T08:58:34.872Z,9.17
2019-03-03T08:59:33.978Z,9.04
2019-03-03T09:00:34.030Z,9.17
2019-03-03T09:01:33.935Z,9.11
2019-03-03T09:02:33.922Z,9.11
2019-03-03T09:03:33.915Z,9.20
2019-03-03T09:04:33.998Z,9.15
2019-03-03T09:05:33.886Z,9.23
2019-03-03T09:06:34.899Z,9.15
2019-03-03T09:07:33.924Z,9.17
2019-03-03T09:08:33.853Z,9.14
2019-03-03T09:09:33.841Z,9.21
2019-03-03T09:10:33.865Z,9.20
2019-03-03T09:11:33.837Z,9.15
2019-03-03T09:12:33.830Z,9.21
2019-03-03T09:13:33.810Z,9.23
2019-03-03T09:14:33.790Z,9.20
2019-03-03T09:15:33.799Z,9.29
2019-03-03T09:16:33.774Z,9.26
2019-03-03T09:17:34.265Z,9.29
2019-03-03T09:18:33.755Z,9.26
2019-03-03T09:19:34.341Z,9.23
2019-03-03T09:20:33.745Z,9.32
2019-03-03T09:21:33.772Z,9.26
2019-03-03T09:22:33.713Z,9.24
2019-03-03T09:23:33.742Z,9.38
2019-03-03T09:24:33.677Z,9.31
2019-03-03T09:25:34.411Z,9.31
2019-03-03T09:26:33.659Z,9.29
2019-03-03T09:27:33.650Z,9.28
2019-03-03T09:28:33.665Z,9.31
2019-03-03T09:29:33.625Z,9.32
2019-03-03T09:30:33.674Z,9.31
2019-03-03T09:31:33.607Z,9.38
2019-03-03T09:32:33.589Z,9.43
2019-03-03T09:33:33.606Z,9.43
2019-03-03T09:34:33.575Z,9.40
2019-03-03T09:35:33.572Z,9.40
2019-03-03T09:36:33.595Z,9.43
2019-03-03T09:37:33.551Z,9.46
2019-03-03T09:38:33.538Z,9.43
2019-03-03T09:39:33.519Z,9.48
2019-03-03T09:40:33.521Z,9.42
2019-03-03T09:41:33.515Z,9.46
2019-03-03T09:42:33.486Z,9.40
2019-03-03T09:43:34.300Z,9.48
2019-03-03T09:44:33.518Z,9.50
2019-03-03T09:45:33.448Z,9.47
2019-03-03T09:46:33.471Z,9.54
2019-03-03T09:47:33.459Z,9.58
2019-03-03T09:48:33.413Z,9.56
2019-03-03T09:49:33.406Z,9.57
2019-03-03T09:50:33.398Z,9.56
2019-03-03T09:51:33.427Z,9.53
2019-03-03T09:52:33.425Z,9.53
2019-03-03T09:53:33.364Z,9.54
2019-03-03T09:54:33.346Z,9.56
2019-03-03T09:55:33.334Z,9.61
2019-03-03T09:56:33.845Z,9.57
2019-03-03T09:57:34.331Z,9.64
2019-03-03T09:58:33.351Z,9.48
2019-03-03T09:59:33.294Z,9.66
2019-03-03T10:00:33.277Z,9.51
2019-03-03T10:01:33.365Z,9.64
2019-03-03T10:02:33.262Z,9.66
2019-03-03T10:03:33.247Z,9.61
2019-03-03T10:04:33.244Z,9.66
2019-03-03T10:05:33.286Z,9.66
2019-03-03T10:06:33.239Z,9.61
2019-03-03T10:07:33.234Z,9.64
2019-03-03T10:08:33.230Z,9.68
2019-03-03T10:09:33.280Z,9.65
2019-03-03T10:10:33.228Z,9.51
2019-03-03T10:11:33.168Z,9.66
2019-03-03T10:12:33.229Z,9.64
2019-03-03T10:13:33.132Z,9.65
2019-03-03T10:14:33.137Z,9.57
2019-03-03T10:15:33.109Z,9.61
2019-03-03T10:16:33.127Z,9.64
2019-03-03T10:17:33.221Z,9.61
2019-03-03T10:18:33.074Z,9.60
2019-03-03T10:19:33.080Z,9.64
2019-03-03T10:20:33.052Z,9.60
2019-03-03T10:21:33.065Z,9.61
2019-03-03T10:22:33.064Z,9.65
2019-03-03T10:23:33.055Z,9.65
2019-03-03T10:24:33.009Z,9.60
2019-03-03T10:25:34.017Z,9.56
2019-03-03T10:26:34.998Z,9.61
2019-03-03T10:27:32.983Z,9.65
2019-03-03T10:28:33.835Z,9.71
2019-03-03T10:29:33.996Z,9.66
2019-03-03T10:30:33.963Z,9.74
2019-03-03T10:31:32.976Z,9.75
2019-03-03T10:32:33.774Z,9.71
2019-03-03T10:33:32.955Z,9.74
2019-03-03T10:34:32.924Z,9.72
2019-03-03T10:35:32.915Z,9.65
2019-03-03T10:36:32.893Z,9.79
2019-03-03T10:37:32.869Z,9.69
2019-03-03T10:38:36.108Z,9.76
2019-03-03T10:39:32.863Z,9.81
2019-03-03T10:40:32.836Z,9.69
2019-03-03T10:41:32.865Z,9.74
2019-03-03T10:42:32.841Z,9.75
2019-03-03T10:43:32.916Z,9.84
2019-03-03T10:44:32.802Z,9.86
2019-03-03T10:45:32.800Z,9.94
2019-03-03T10:46:32.797Z,9.87
2019-03-03T10:47:32.794Z,9.86
2019-03-03T10:48:32.760Z,9.81
2019-03-03T10:49:32.769Z,9.86
2019-03-03T10:50:32.765Z,9.93
2019-03-03T10:51:32.858Z,9.86
2019-03-03T10:52:32.783Z,9.97
2019-03-03T10:53:32.697Z,9.91
2019-03-03T10:54:32.928Z,9.91
2019-03-03T10:55:32.678Z,9.89
2019-03-03T10:56:32.675Z,9.99
2019-03-03T10:57:32.656Z,9.86
2019-03-03T10:58:32.637Z,9.89
2019-03-03T10:59:32.657Z,9.87
2019-03-03T11:00:32.648Z,9.94
2019-03-03T11:01:32.616Z,9.97
2019-03-03T11:02:32.603Z,10.01
2019-03-03T11:03:32.604Z,9.93
2019-03-03T11:04:32.569Z,9.90
2019-03-03T11:05:33.449Z,9.83
2019-03-03T11:06:32.568Z,9.86
2019-03-03T11:07:33.337Z,9.84
2019-03-03T11:08:32.539Z,9.83
2019-03-03T11:09:32.525Z,9.81
2019-03-03T11:10:32.565Z,9.81
2019-03-03T11:11:32.499Z,9.86
2019-03-03T11:12:32.501Z,9.79
2019-03-03T11:13:32.481Z,9.93
2019-03-03T11:14:33.385Z,9.99
2019-03-03T11:15:32.477Z,9.94
2019-03-03T11:16:32.449Z,10.01
2019-03-03T11:17:32.445Z,9.96
2019-03-03T11:18:32.422Z,9.91
2019-03-03T11:19:33.472Z,9.99
2019-03-03T11:20:33.992Z,9.99
2019-03-03T11:21:32.518Z,9.99
2019-03-03T11:22:32.380Z,10.02
2019-03-03T11:23:32.397Z,10.02
2019-03-03T11:24:32.366Z,9.99
2019-03-03T11:25:32.488Z,10.11
2019-03-03T11:26:32.451Z,10.01
2019-03-03T11:27:32.325Z,10.05
2019-03-03T11:28:32.345Z,10.09
2019-03-03T11:29:32.310Z,10.11
2019-03-03T11:30:32.322Z,10.14
2019-03-03T11:31:32.406Z,10.09
2019-03-03T11:32:32.274Z,10.23
2019-03-03T11:33:32.265Z,10.26
2019-03-03T11:34:32.241Z,10.29
2019-03-03T11:35:34.805Z,10.29
2019-03-03T11:36:35.810Z,10.32
2019-03-03T11:37:32.209Z,10.33
2019-03-03T11:38:32.218Z,10.30
2019-03-03T11:39:32.265Z,10.32
2019-03-03T11:40:32.179Z,10.32
2019-03-03T11:41:32.205Z,10.38
2019-03-03T11:42:32.182Z,10.48
2019-03-03T11:43:32.151Z,10.53
2019-03-03T11:44:32.166Z,10.51
2019-03-03T11:45:32.167Z,10.48
2019-03-03T11:46:32.222Z,10.55
2019-03-03T11:47:32.159Z,10.53
2019-03-03T11:48:32.094Z,10.55
2019-03-03T11:49:32.090Z,10.51
2019-03-03T11:50:32.114Z,10.47
2019-03-03T11:51:32.113Z,10.60
2019-03-03T11:52:32.051Z,10.64
2019-03-03T11:53:32.796Z,10.64
2019-03-03T11:54:32.049Z,10.70
2019-03-03T11:55:32.007Z,10.66
2019-03-03T11:56:32.016Z,10.81
2019-03-03T11:57:31.982Z,10.73
2019-03-03T11:58:31.974Z,10.74
2019-03-03T11:59:31.962Z,10.82
2019-03-03T12:00:33.809Z,10.84
2019-03-03T12:01:31.977Z,10.92
2019-03-03T12:02:32.697Z,10.81
2019-03-03T12:03:31.922Z,10.92
2019-03-03T12:04:31.913Z,10.96
2019-03-03T12:05:31.903Z,10.94
2019-03-03T12:06:31.888Z,10.82
2019-03-03T12:07:31.937Z,10.79
2019-03-03T12:08:31.903Z,10.82
2019-03-03T12:09:31.869Z,10.84
2019-03-03T12:10:31.838Z,10.84
2019-03-03T12:11:31.857Z,10.89
2019-03-03T12:12:31.832Z,10.79
2019-03-03T12:13:31.815Z,10.70
2019-03-03T12:14:31.789Z,10.67
2019-03-03T12:15:31.784Z,10.71
2019-03-03T12:16:31.794Z,10.68
2019-03-03T12:17:31.834Z,10.66
2019-03-03T12:18:31.759Z,10.66
2019-03-03T12:19:31.742Z,10.73
2019-03-03T12:20:31.803Z,10.63
2019-03-03T12:21:31.715Z,10.67
2019-03-03T12:22:31.733Z,10.81
2019-03-03T12:23:31.745Z,10.86
2019-03-03T12:24:31.767Z,10.88
2019-03-03T12:25:31.679Z,10.94
2019-03-03T12:26:31.659Z,10.96
2019-03-03T12:27:31.670Z,10.99
2019-03-03T12:28:31.645Z,10.94
2019-03-03T12:29:31.621Z,10.91
2019-03-03T12:30:31.614Z,10.86
2019-03-03T12:31:31.604Z,10.81
2019-03-03T12:32:31.657Z,10.85
2019-03-03T12:33:31.583Z,10.81
2019-03-03T12:34:31.573Z,10.74
2019-03-03T12:35:31.568Z,10.82
2019-03-03T12:36:31.621Z,10.81
2019-03-03T12:37:31.563Z,10.82
2019-03-03T12:38:31.582Z,10.82
2019-03-03T12:39:31.568Z,10.82
2019-03-03T12:40:31.507Z,10.85
2019-03-03T12:41:31.496Z,10.91
2019-03-03T12:42:31.526Z,10.81
2019-03-03T12:43:31.470Z,10.86
2019-03-03T12:44:31.458Z,10.85
2019-03-03T12:45:31.490Z,10.82
2019-03-03T12:46:31.438Z,10.99
2019-03-03T12:47:31.537Z,10.86
2019-03-03T12:48:34.349Z,10.85
2019-03-03T12:49:31.423Z,10.92
2019-03-03T12:50:31.387Z,10.88
2019-03-03T12:51:31.383Z,10.82
2019-03-03T12:52:31.365Z,10.86
2019-03-03T12:53:31.796Z,10.86
2019-03-03T12:54:31.353Z,10.89
2019-03-03T12:55:31.329Z,10.91
2019-03-03T12:56:31.325Z,10.89
2019-03-03T12:57:32.299Z,10.94
2019-03-03T12:58:31.337Z,10.97
2019-03-03T12:59:31.341Z,10.92
2019-03-03T13:00:31.280Z,10.91
2019-03-03T13:01:31.325Z,10.86
2019-03-03T13:02:31.287Z,10.89
2019-03-03T13:03:31.961Z,10.88
2019-03-03T13:04:31.318Z,10.78
2019-03-03T13:05:31.457Z,10.81
2019-03-03T13:06:31.226Z,11.00
2019-03-03T13:07:31.205Z,10.91
2019-03-03T13:08:34.329Z,10.99
2019-03-03T13:09:31.177Z,10.85
2019-03-03T13:10:31.829Z,10.85
2019-03-03T13:11:31.184Z,10.88
2019-03-03T13:12:31.185Z,10.85
2019-03-03T13:13:31.265Z,10.88
2019-03-03T13:14:31.222Z,10.85
2019-03-03T13:15:31.132Z,10.78